createdAt,value
2022-11-03T00:11:19.438Z,11.2
2022-11-03T00:26:19.493Z,11.2
2022-11-03T00:41:19.457Z,11.2
2022-11-03T00:56:19.430Z,11.3
2022-11-03T01:11:19.432Z,11.2
2022-11-03T01:26:19.431Z,11.3
2022-11-03T01:41:19.424Z,11.4
2022-11-03T01:56:19.430Z,11.4
2022-11-03T02:11:19.425Z,11.6
2022-11-03T02:26:19.436Z,11.4
2022-11-03T02:41:19.426Z,11.4
2022-11-03T02:56:19.434Z,11.6
2022-11-03T03:11:19.451Z,11.6
2022-11-03T03:26:19.427Z,11.5
2022-11-03T03:41:19.446Z,11.4
2022-11-03T03:56:19.476Z,11.4
2022-11-03T04:11:19.425Z,11.4
2022-11-03T04:26:19.440Z,11.5
2022-11-03T04:41:19.423Z,11.6
2022-11-03T04:56:19.461Z,11.7
2022-11-03T05:11:19.434Z,11.6
2022-11-03T05:26:19.434Z,11.7
2022-11-03T05:41:19.439Z,11.6
2022-11-03T05:56:19.438Z,11.6
2022-11-03T06:11:19.428Z,11.6
2022-11-03T06:26:19.466Z,11.8
2022-11-03T06:41:19.431Z,11.9
2022-11-03T06:56:19.433Z,11.9
2022-11-03T07:11:19.438Z,12
2022-11-03T07:26:19.428Z,12.1
2022-11-03T07:41:19.441Z,12.1
2022-11-03T07:56:19.514Z,12.3
2022-11-03T08:11:20.944Z,12.5
2022-11-03T08:26:19.438Z,12.5
2022-11-03T08:41:19.430Z,12.7
2022-11-03T08:56:22.290Z,13
2022-11-03T09:11:19.439Z,13
2022-11-03T09:26:19.437Z,13.1
2022-11-03T09:41:26.044Z,13.3
2022-11-03T09:56:19.428Z,13.4
2022-11-03T10:11:19.431Z,13.4
2022-11-03T10:26:19.433Z,13.4
2022-11-03T10:41:19.455Z,13.4
2022-11-03T10:56:19.441Z,13.8
2022-11-03T11:11:19.430Z,13.8
2022-11-03T11:26:19.441Z,13.8
2022-11-03T11:41:19.457Z,14.1
2022-11-03T11:56:19.430Z,14.4
2022-11-03T12:11:19.446Z,14.4
2022-11-03T12:26:19.436Z,14.4
2022-11-03T12:41:19.418Z,14.4
2022-11-03T12:56:19.426Z,14.4
2022-11-03T13:11:19.473Z,14.6
2022-11-03T13:26:19.432Z,14.6
2022-11-03T13:41:19.443Z,14.4
2022-11-03T13:56:21.996Z,14.2
2022-11-03T14:11:19.433Z,14.1
2022-11-03T14:26:22.523Z,13.7
2022-11-03T14:41:19.435Z,13.1
2022-11-03T14:56:19.428Z,13
2022-11-03T15:11:19.427Z,12.9
2022-11-03T15:26:19.434Z,12.9
2022-11-03T15:41:19.448Z,12.9
2022-11-03T15:56:19.462Z,12.9
2022-11-03T16:11:19.429Z,12.8
2022-11-03T16:26:19.427Z,12.5
2022-11-03T16:41:19.431Z,12.5
2022-11-03T16:56:19.478Z,12.3
2022-11-03T17:11:19.428Z,12.3
2022-11-03T17:26:19.432Z,12.4
2022-11-03T17:41:19.435Z,12.2
2022-11-03T17:56:30.709Z,12.2
2022-11-03T18:11:19.426Z,12.2
2022-11-03T18:26:19.431Z,11.9
2022-11-03T18:41:19.434Z,11.8
2022-11-03T18:56:19.420Z,11.6
2022-11-03T19:11:19.442Z,11.7
2022-11-03T19:26:19.454Z,11.6
2022-11-03T19:41:19.436Z,11.7
2022-11-03T19:56:19.429Z,11.6
2022-11-03T20:11:19.434Z,11.4
2022-11-03T20:26:19.435Z,11.5
2022-11-03T20:41:19.429Z,11.5
2022-11-03T20:56:19.926Z,11.4
2022-11-03T21:11:19.434Z,11.1
2022-11-03T21:26:19.434Z,10.8
2022-11-03T21:41:19.433Z,9.9
2022-11-03T21:56:19.446Z,9.7
2022-11-03T22:11:19.427Z,9.7
2022-11-03T22:26:19.430Z,9.6
2022-11-03T22:41:19.438Z,9.5
2022-11-03T22:56:19.437Z,9.5
2022-11-03T23:11:19.432Z,9.4
2022-11-03T23:26:19.423Z,9.4
2022-11-03T23:41:19.433Z,9.6
2022-11-03T23:56:19.433Z,9.7
